createdAt,value
2023-05-01T00:00:26.410Z,50.866772
2023-05-01T00:01:26.425Z,50.866795
2023-05-01T00:02:26.469Z,50.866787
2023-05-01T00:03:26.559Z,50.866783
2023-05-01T00:04:26.491Z,50.866760
2023-05-01T00:05:26.382Z,50.866779
2023-05-01T00:06:26.437Z,50.866810
2023-05-01T00:07:26.353Z,50.866772
2023-05-01T00:08:28.055Z,50.866814
2023-05-01T00:09:26.394Z,50.866817
2023-05-01T00:10:26.336Z,50.866760
2023-05-01T00:11:26.332Z,50.866795
2023-05-01T00:12:26.334Z,50.866871
2023-05-01T00:13:27.039Z,50.866882
2023-05-01T00:14:26.332Z,50.866825
2023-05-01T00:15:26.300Z,50.866882
2023-05-01T00:16:26.324Z,50.866882
2023-05-01T00:17:26.460Z,50.866837
2023-05-01T00:18:26.304Z,50.866856
2023-05-01T00:19:26.293Z,50.866833
2023-05-01T00:20:26.277Z,50.866814
2023-05-01T00:24:27.270Z,50.866856
2023-05-01T00:25:27.255Z,50.866825
2023-05-01T00:26:27.254Z,50.866821
2023-05-01T00:27:27.256Z,50.866806
2023-05-01T00:28:27.290Z,50.866772
2023-05-01T00:29:27.233Z,50.866810
2023-05-01T00:30:27.224Z,50.866825
2023-05-01T00:31:27.223Z,50.866894
2023-05-01T00:32:27.238Z,50.866840
2023-05-01T00:33:27.203Z,50.866814
2023-05-01T00:34:27.192Z,50.866810
2023-05-01T00:35:27.206Z,50.866814
2023-05-01T00:36:27.184Z,50.866814
2023-05-01T00:37:27.184Z,50.866825
2023-05-01T00:38:27.156Z,50.866825
2023-05-01T00:39:27.169Z,50.866817
2023-05-01T00:40:27.137Z,50.866837
2023-05-01T00:41:27.144Z,50.866787
2023-05-01T00:42:27.152Z,50.866848
2023-05-01T00:43:27.137Z,50.866871
2023-05-01T00:44:27.110Z,50.866863
2023-05-01T00:45:28.108Z,50.866802
2023-05-01T00:46:27.172Z,50.866829
2023-05-01T00:47:27.134Z,50.866875
2023-05-01T00:48:27.083Z,50.866810
2023-05-01T00:49:27.093Z,50.866837
2023-05-01T00:50:27.068Z,50.866802
2023-05-01T00:51:27.078Z,50.866779
2023-05-01T00:52:27.057Z,50.866821
2023-05-01T00:53:27.046Z,50.866852
2023-05-01T00:54:27.040Z,50.866863
2023-05-01T00:55:27.027Z,50.866825
2023-05-01T00:56:27.035Z,50.866798
2023-05-01T00:57:27.039Z,50.866787
2023-05-01T00:58:27.023Z,50.866833
2023-05-01T00:59:27.016Z,50.866798
2023-05-01T01:00:27.006Z,50.866787
2023-05-01T01:01:27.030Z,50.866810
2023-05-01T01:02:26.982Z,50.866791
2023-05-01T01:03:26.971Z,50.866783
2023-05-01T01:04:27.031Z,50.866776
2023-05-01T01:05:27.653Z,50.866787
2023-05-01T01:06:26.993Z,50.866817
2023-05-01T01:07:26.949Z,50.866791
2023-05-01T01:08:26.924Z,50.866833
2023-05-01T01:09:26.917Z,50.866825
2023-05-01T01:10:26.909Z,50.866821
2023-05-01T01:11:26.919Z,50.866806
2023-05-01T01:12:26.910Z,50.866764
2023-05-01T01:13:26.905Z,50.866848
2023-05-01T01:14:26.899Z,50.866791
2023-05-01T01:15:26.875Z,50.866817
2023-05-01T01:16:27.213Z,50.866772
2023-05-01T01:17:26.866Z,50.866802
2023-05-01T01:18:26.860Z,50.866890
2023-05-01T01:19:26.860Z,50.867001
2023-05-01T01:20:26.848Z,50.867001
2023-05-01T01:21:26.822Z,50.867123
2023-05-01T01:22:26.834Z,50.867180
2023-05-01T01:23:26.807Z,50.867069
2023-05-01T01:24:26.817Z,50.867039
2023-05-01T01:25:26.806Z,50.866871
2023-05-01T01:26:26.787Z,50.867233
2023-05-01T01:27:26.808Z,50.867386
2023-05-01T01:28:26.767Z,50.867100
2023-05-01T01:29:26.802Z,50.867165
2023-05-01T01:30:26.759Z,50.867126
2023-05-01T01:31:26.809Z,50.867065
2023-05-01T01:32:26.797Z,50.867008
2023-05-01T01:33:26.730Z,50.867020
2023-05-01T01:34:26.744Z,50.867023
2023-05-01T01:35:26.709Z,50.866932
2023-05-01T01:36:26.712Z,50.867035
2023-05-01T01:37:26.705Z,50.867191
2023-05-01T01:38:26.708Z,50.867161
2023-05-01T01:39:26.691Z,50.867012
2023-05-01T01:40:26.670Z,50.867050
2023-05-01T01:41:26.680Z,50.866882
2023-05-01T01:42:26.686Z,50.866837
2023-05-01T01:43:26.670Z,50.866989
2023-05-01T01:44:26.645Z,50.867023
2023-05-01T01:45:26.654Z,50.866768
2023-05-01T01:46:26.686Z,50.866745
2023-05-01T01:47:26.674Z,50.866875
2023-05-01T01:48:26.616Z,50.866940
2023-05-01T01:49:26.627Z,50.867096
2023-05-01T01:50:26.615Z,50.867218
2023-05-01T01:51:26.599Z,50.867336
2023-05-01T01:52:26.610Z,50.867218
2023-05-01T01:53:26.578Z,50.867142
2023-05-01T01:54:26.577Z,50.867077
2023-05-01T01:55:27.156Z,50.866982
2023-05-01T01:56:26.546Z,50.866997
2023-05-01T01:57:26.554Z,50.866657
2023-05-01T01:58:26.653Z,50.866543
2023-05-01T01:59:26.544Z,50.866646
2023-05-01T02:00:27.147Z,50.866760
2023-05-01T02:01:26.540Z,50.866848
2023-05-01T02:02:26.697Z,50.867027
2023-05-01T02:03:26.722Z,50.867374
2023-05-01T02:04:26.509Z,50.867012
2023-05-01T02:05:26.489Z,50.866875
2023-05-01T02:06:26.510Z,50.866772
2023-05-01T02:07:26.458Z,50.866756
2023-05-01T02:08:26.441Z,50.866714
2023-05-01T02:09:26.450Z,50.866783
2023-05-01T02:10:26.451Z,50.866756
2023-05-01T02:11:26.432Z,50.866768
2023-05-01T02:12:26.464Z,50.866764
2023-05-01T02:13:26.410Z,50.866722
2023-05-01T02:14:26.425Z,50.866741
2023-05-01T02:15:26.414Z,50.866718
2023-05-01T02:16:26.430Z,50.866734
2023-05-01T02:17:26.429Z,50.866726
2023-05-01T02:18:26.373Z,50.866787
2023-05-01T02:19:26.380Z,50.866814
2023-05-01T02:20:26.368Z,50.866856
2023-05-01T02:21:26.380Z,50.866802
2023-05-01T02:22:26.350Z,50.866760
2023-05-01T02:23:26.338Z,50.866795
2023-05-01T02:24:26.432Z,50.866814
2023-05-01T02:25:27.907Z,50.866833
2023-05-01T02:26:26.334Z,50.866821
2023-05-01T02:27:26.347Z,50.866734
2023-05-01T02:28:26.305Z,50.866745
2023-05-01T02:29:26.288Z,50.866886
2023-05-01T02:30:26.309Z,50.866856
2023-05-01T02:31:26.302Z,50.866795
2023-05-01T02:32:26.345Z,50.866840
2023-05-01T02:33:26.259Z,50.866928
2023-05-01T02:34:26.247Z,50.866917
2023-05-01T02:35:26.275Z,50.866859
2023-05-01T02:36:26.240Z,50.866894
2023-05-01T02:37:26.248Z,50.867058
2023-05-01T02:38:26.238Z,50.867016
2023-05-01T02:39:26.248Z,50.866890
2023-05-01T02:40:26.219Z,50.867008
2023-05-01T02:41:28.190Z,50.866989
2023-05-01T02:42:26.192Z,50.866962
2023-05-01T02:43:26.184Z,50.866970
2023-05-01T02:44:26.192Z,50.866943
2023-05-01T02:45:26.231Z,50.866776
2023-05-01T02:46:26.235Z,50.866772
2023-05-01T02:47:26.242Z,50.866806
2023-05-01T02:48:26.188Z,50.866829
2023-05-01T02:49:26.162Z,50.866806
2023-05-01T02:50:26.138Z,50.866817
2023-05-01T02:51:26.128Z,50.866791
2023-05-01T02:52:26.192Z,50.866798
2023-05-01T02:53:26.701Z,50.866909
2023-05-01T02:54:26.126Z,50.866776
2023-05-01T02:55:26.104Z,50.866821
2023-05-01T02:56:26.100Z,50.866810
2023-05-01T02:57:26.096Z,50.866783
2023-05-01T02:58:27.081Z,50.866829
2023-05-01T02:59:26.671Z,50.866760
2023-05-01T03:00:26.088Z,50.866798
2023-05-01T03:01:26.153Z,50.866776
2023-05-01T03:02:26.045Z,50.866669
2023-05-01T03:03:26.059Z,50.866768
2023-05-01T03:04:26.057Z,50.866806
2023-05-01T03:05:26.044Z,50.866783
2023-05-01T03:06:26.042Z,50.866764
2023-05-01T03:07:26.026Z,50.866745
2023-05-01T03:08:26.010Z,50.866848
2023-05-01T03:09:25.989Z,50.866756
2023-05-01T03:10:25.992Z,50.866776
2023-05-01T03:11:25.973Z,50.866768
2023-05-01T03:12:25.974Z,50.866859
2023-05-01T03:13:25.988Z,50.866776
2023-05-01T03:14:25.964Z,50.866817
2023-05-01T03:15:25.957Z,50.866871
2023-05-01T03:16:25.996Z,50.866837
2023-05-01T03:17:25.953Z,50.866798
2023-05-01T03:18:25.934Z,50.866791
2023-05-01T03:19:25.913Z,50.866814
2023-05-01T03:20:26.571Z,50.866798
2023-05-01T03:21:25.921Z,50.866798
2023-05-01T03:22:25.888Z,50.866791
2023-05-01T03:23:25.885Z,50.866795
2023-05-01T03:24:25.886Z,50.866787
2023-05-01T03:25:25.864Z,50.866802
2023-05-01T03:26:25.868Z,50.866817
2023-05-01T03:27:25.840Z,50.866802
2023-05-01T03:28:25.915Z,50.866802
2023-05-01T03:29:25.860Z,50.866814
2023-05-01T03:30:25.841Z,50.866783
2023-05-01T03:31:25.876Z,50.866768
2023-05-01T03:32:26.061Z,50.866798
2023-05-01T03:33:25.824Z,50.866779
2023-05-01T03:34:25.798Z,50.866772
2023-05-01T03:35:25.875Z,50.866783
2023-05-01T03:36:25.777Z,50.866764
2023-05-01T03:37:25.796Z,50.866791
2023-05-01T03:38:25.756Z,50.866779
2023-05-01T03:39:25.755Z,50.866760
2023-05-01T03:40:26.752Z,50.866772
2023-05-01T03:41:25.735Z,50.866768
2023-05-01T03:42:25.739Z,50.866760
2023-05-01T03:43:25.844Z,50.866768
2023-05-01T03:44:25.726Z,50.866779
2023-05-01T03:45:25.701Z,50.866783
2023-05-01T03:46:25.707Z,50.866798
2023-05-01T03:47:26.759Z,50.866764
2023-05-01T03:48:25.724Z,50.866760
2023-05-01T03:49:25.676Z,50.866764
2023-05-01T03:50:25.679Z,50.866756
2023-05-01T03:51:25.712Z,50.866741
2023-05-01T03:52:25.702Z,50.866768
2023-05-01T03:53:25.646Z,50.866772
2023-05-01T03:54:25.658Z,50.866791
2023-05-01T03:55:25.645Z,50.866753
2023-05-01T03:56:25.728Z,50.866764
2023-05-01T03:57:25.617Z,50.866760
2023-05-01T03:58:25.603Z,50.866737
2023-05-01T03:59:25.605Z,50.866821
2023-05-01T04:00:25.592Z,50.866783
2023-05-01T04:01:25.610Z,50.866737
2023-05-01T04:02:25.719Z,50.866756
2023-05-01T04:03:25.631Z,50.866753
2023-05-01T04:04:26.228Z,50.866749
2023-05-01T04:05:26.553Z,50.866749
2023-05-01T04:06:25.577Z,50.866745
2023-05-01T04:07:25.537Z,50.866753
2023-05-01T04:08:25.533Z,50.866753
2023-05-01T04:09:25.527Z,50.866776
2023-05-01T04:10:25.513Z,50.866756
2023-05-01T04:11:25.520Z,50.866753
2023-05-01T04:12:25.499Z,50.866772
2023-05-01T04:13:25.708Z,50.866768
2023-05-01T04:14:26.519Z,50.866753
2023-05-01T04:15:25.493Z,50.866753
2023-05-01T04:16:25.529Z,50.866749
2023-05-01T04:17:25.466Z,50.866753
2023-05-01T04:18:25.458Z,50.866768
2023-05-01T04:19:25.479Z,50.866772
2023-05-01T04:20:25.446Z,50.866768
2023-05-01T04:21:26.205Z,50.866756
2023-05-01T04:22:25.477Z,50.866779
2023-05-01T04:23:25.426Z,50.866783
2023-05-01T04:24:25.444Z,50.866764
2023-05-01T04:25:25.400Z,50.866768
2023-05-01T04:26:28.224Z,50.866772
2023-05-01T04:27:25.382Z,50.866783
2023-05-01T04:28:25.424Z,50.866779
2023-05-01T04:29:25.373Z,50.866764
2023-05-01T04:30:25.366Z,50.866749
2023-05-01T04:31:25.396Z,50.866764
2023-05-01T04:32:25.354Z,50.866776
2023-05-01T04:33:25.347Z,50.866791
2023-05-01T04:34:25.325Z,50.866787
2023-05-01T04:35:25.345Z,50.866833
2023-05-01T04:36:27.182Z,50.866806
2023-05-01T04:37:25.320Z,50.866798
2023-05-01T04:38:25.304Z,50.866840
2023-05-01T04:39:25.275Z,50.866825
2023-05-01T04:40:26.112Z,50.866821
2023-05-01T04:41:25.278Z,50.866852
2023-05-01T04:42:25.271Z,50.866817
2023-05-01T04:43:25.248Z,50.866856
2023-05-01T04:44:25.289Z,50.866848
2023-05-01T04:45:25.247Z,50.866806
2023-05-01T04:46:25.229Z,50.866776
2023-05-01T04:47:25.221Z,50.866776
2023-05-01T04:48:25.216Z,50.866734
2023-05-01T04:49:27.091Z,50.866825
2023-05-01T04:50:25.219Z,50.866829
2023-05-01T04:51:25.202Z,50.866779
2023-05-01T04:52:25.187Z,50.866791
2023-05-01T04:53:25.205Z,50.866814
2023-05-01T04:54:26.182Z,50.866817
2023-05-01T04:55:26.193Z,50.866833
2023-05-01T04:56:25.162Z,50.866791
2023-05-01T04:57:25.163Z,50.866772
2023-05-01T04:58:25.137Z,50.866817
2023-05-01T04:59:25.141Z,50.866837
2023-05-01T05:00:25.133Z,50.866825
2023-05-01T05:01:25.188Z,50.866783
2023-05-01T05:02:25.161Z,50.866768
2023-05-01T05:03:25.186Z,50.866821
2023-05-01T05:04:25.161Z,50.866867
2023-05-01T05:05:25.143Z,50.866840
2023-05-01T05:06:25.170Z,50.866772
2023-05-01T05:07:25.069Z,50.866798
2023-05-01T05:08:25.053Z,50.866802
2023-05-01T05:09:25.086Z,50.866825
2023-05-01T05:10:25.063Z,50.866863
2023-05-01T05:11:25.063Z,50.866837
2023-05-01T05:12:25.061Z,50.866817
2023-05-01T05:13:25.042Z,50.866810
2023-05-01T05:14:25.693Z,50.866879
2023-05-01T05:15:25.020Z,50.866852
2023-05-01T05:16:25.037Z,50.866852
2023-05-01T05:17:25.011Z,50.866848
2023-05-01T05:18:25.032Z,50.866859
2023-05-01T05:19:24.978Z,50.866829
2023-05-01T05:20:24.982Z,50.866856
2023-05-01T05:21:24.979Z,50.866890
2023-05-01T05:22:24.968Z,50.866913
2023-05-01T05:23:24.951Z,50.866909
2023-05-01T05:24:24.951Z,50.866943
2023-05-01T05:25:24.987Z,50.866947
2023-05-01T05:26:24.947Z,50.866932
2023-05-01T05:27:24.988Z,50.866798
2023-05-01T05:28:24.905Z,50.866776
2023-05-01T05:29:26.617Z,50.866814
2023-05-01T05:30:24.894Z,50.866714
2023-05-01T05:31:24.967Z,50.866734
2023-05-01T05:32:24.967Z,50.866772
2023-05-01T05:33:24.887Z,50.866718
2023-05-01T05:34:25.741Z,50.866688
2023-05-01T05:35:24.863Z,50.866718
2023-05-01T05:36:24.848Z,50.866749
2023-05-01T05:37:24.831Z,50.866722
2023-05-01T05:38:24.862Z,50.866707
2023-05-01T05:39:24.869Z,50.866673
2023-05-01T05:40:24.827Z,50.866650
2023-05-01T05:41:24.805Z,50.866634
2023-05-01T05:42:24.850Z,50.866665
2023-05-01T05:43:27.329Z,50.866638
2023-05-01T05:44:25.772Z,50.866657
2023-05-01T05:45:24.793Z,50.866657
2023-05-01T05:46:24.817Z,50.866623
2023-05-01T05:47:24.824Z,50.866581
2023-05-01T05:48:24.804Z,50.866623
2023-05-01T05:49:24.752Z,50.866634
2023-05-01T05:50:25.632Z,50.866646
2023-05-01T05:51:26.697Z,50.866665
2023-05-01T05:52:24.736Z,50.866669
2023-05-01T05:53:25.999Z,50.866653
2023-05-01T05:57:33.507Z,50.866680
2023-05-01T05:58:33.464Z,50.866699
2023-05-01T05:59:33.471Z,50.866673
2023-05-01T06:00:33.458Z,50.866673
2023-05-01T06:01:35.166Z,50.866684
2023-05-01T06:02:33.575Z,50.866673
2023-05-01T06:03:33.750Z,50.866669
2023-05-01T06:04:33.426Z,50.866661
2023-05-01T06:05:33.454Z,50.866673
2023-05-01T06:06:33.449Z,50.866684
2023-05-01T06:07:33.428Z,50.866711
2023-05-01T06:08:33.387Z,50.866711
2023-05-01T06:11:44.337Z,50.866699
2023-05-01T06:12:45.545Z,50.866695
2023-05-01T06:13:44.543Z,50.866703
2023-05-01T06:14:43.539Z,50.866749
2023-05-01T06:15:43.575Z,50.866692
2023-05-01T06:16:44.074Z,50.866711
2023-05-01T06:17:43.570Z,50.866741
2023-05-01T06:18:45.674Z,50.866692
2023-05-01T06:19:45.406Z,50.866692
2023-05-01T06:20:43.492Z,50.866726
2023-05-01T06:21:44.732Z,50.866642
2023-05-01T06:22:43.483Z,50.866699
2023-05-01T06:23:43.481Z,50.866688
2023-05-01T06:25:16.380Z,50.866692
2023-05-01T06:25:43.452Z,50.866684
2023-05-01T06:26:43.457Z,50.866703
2023-05-01T06:27:43.473Z,50.866680
2023-05-01T06:28:43.433Z,50.866692
2023-05-01T06:29:43.417Z,50.866673
2023-05-01T06:30:43.426Z,50.866684
2023-05-01T06:31:43.414Z,50.866711
2023-05-01T06:32:43.443Z,50.866730
2023-05-01T06:33:43.412Z,50.866711
2023-05-01T06:34:43.377Z,50.866707
2023-05-01T06:35:43.410Z,50.866726
2023-05-01T06:36:43.363Z,50.866753
2023-05-01T06:37:44.374Z,50.866695
2023-05-01T06:38:43.344Z,50.866722
2023-05-01T06:39:43.368Z,50.866734
2023-05-01T06:40:43.337Z,50.866760
2023-05-01T06:41:43.335Z,50.866684
2023-05-01T06:42:43.317Z,50.866692
2023-05-01T06:43:43.305Z,50.866756
2023-05-01T06:44:43.299Z,50.866760
2023-05-01T06:45:44.870Z,50.866714
2023-05-01T06:46:43.306Z,50.866718
2023-05-01T06:47:43.339Z,50.866806
2023-05-01T06:48:43.276Z,50.866833
2023-05-01T06:49:43.258Z,50.866737
2023-05-01T06:50:43.306Z,50.866734
2023-05-01T06:51:43.257Z,50.866734
2023-05-01T06:52:44.953Z,50.866741
2023-05-01T06:53:43.249Z,50.866798
2023-05-01T06:54:43.238Z,50.866879
2023-05-01T06:55:43.220Z,50.866791
2023-05-01T06:56:43.204Z,50.866745
2023-05-01T06:57:43.212Z,50.866734
2023-05-01T06:58:43.188Z,50.866737
2023-05-01T06:59:43.193Z,50.866726
2023-05-01T07:00:43.185Z,50.866760
2023-05-01T07:01:43.255Z,50.866741
2023-05-01T07:02:43.290Z,50.866741
2023-05-01T07:03:43.225Z,50.866749
2023-05-01T07:04:43.976Z,50.866745
2023-05-01T07:05:43.127Z,50.866768
2023-05-01T07:06:43.144Z,50.866833
2023-05-01T07:07:54.135Z,50.866814
2023-05-01T07:08:44.135Z,50.866783
2023-05-01T07:09:43.113Z,50.866795
2023-05-01T07:10:43.109Z,50.866772
2023-05-01T07:11:44.982Z,50.866753
2023-05-01T07:12:43.091Z,50.866730
2023-05-01T07:13:43.065Z,50.866734
2023-05-01T07:14:43.071Z,50.866734
2023-05-01T07:15:43.054Z,50.866745
2023-05-01T07:16:43.105Z,50.866749
2023-05-01T07:17:43.057Z,50.866798
2023-05-01T07:18:43.032Z,50.866844
2023-05-01T07:19:43.029Z,50.866779
2023-05-01T07:20:43.033Z,50.866737
2023-05-01T07:21:44.885Z,50.866722
2023-05-01T07:22:43.009Z,50.866760
2023-05-01T07:23:42.998Z,50.866795
2023-05-01T07:24:45.908Z,50.866829
2023-05-01T07:25:42.990Z,50.866772
2023-05-01T07:26:42.969Z,50.866745
2023-05-01T07:27:42.968Z,50.866783
2023-05-01T07:28:42.953Z,50.866791
2023-05-01T07:29:42.955Z,50.866787
2023-05-01T07:30:42.937Z,50.866783
2023-05-01T07:31:43.578Z,50.866852
2023-05-01T07:32:42.958Z,50.866810
2023-05-01T07:33:42.937Z,50.866787
2023-05-01T07:34:42.915Z,50.866783
2023-05-01T07:35:42.892Z,50.866802
2023-05-01T07:36:42.900Z,50.866837
2023-05-01T07:37:42.907Z,50.866817
2023-05-01T07:38:42.892Z,50.866802
2023-05-01T07:39:42.888Z,50.866806
2023-05-01T07:40:42.876Z,50.866776
2023-05-01T07:41:42.848Z,50.866779
2023-05-01T07:42:42.835Z,50.866817
2023-05-01T07:43:44.391Z,50.866795
2023-05-01T07:44:42.853Z,50.866772
2023-05-01T07:45:43.145Z,50.866791
2023-05-01T07:46:42.815Z,50.866810
2023-05-01T07:47:42.873Z,50.866783
2023-05-01T07:48:42.813Z,50.866787
2023-05-01T07:49:43.415Z,50.866772
2023-05-01T07:50:42.785Z,50.866787
2023-05-01T07:51:42.783Z,50.866756
2023-05-01T07:52:42.815Z,50.866722
2023-05-01T07:53:42.753Z,50.866722
2023-05-01T07:54:42.760Z,50.866734
2023-05-01T07:55:42.751Z,50.866753
2023-05-01T07:56:42.734Z,50.866718
2023-05-01T07:57:42.723Z,50.866745
2023-05-01T07:58:42.726Z,50.866760
2023-05-01T07:59:42.715Z,50.866741
2023-05-01T08:00:42.720Z,50.866737
2023-05-01T08:01:42.709Z,50.866764
2023-05-01T08:02:42.792Z,50.866714
2023-05-01T08:03:42.779Z,50.866741
2023-05-01T08:04:42.684Z,50.866730
2023-05-01T08:05:42.687Z,50.866734
2023-05-01T08:06:42.694Z,50.866726
2023-05-01T08:07:42.636Z,50.866741
2023-05-01T08:08:42.678Z,50.866726
2023-05-01T08:09:42.669Z,50.866726
2023-05-01T08:10:42.619Z,50.866688
2023-05-01T08:11:42.607Z,50.866692
2023-05-01T08:12:42.624Z,50.866692
2023-05-01T08:13:42.604Z,50.866722
2023-05-01T08:14:42.605Z,50.866718
2023-05-01T08:15:42.643Z,50.866741
2023-05-01T08:16:42.633Z,50.866741
2023-05-01T08:17:42.612Z,50.866714
2023-05-01T08:18:42.627Z,50.866688
2023-05-01T08:19:42.562Z,50.866718
2023-05-01T08:20:42.558Z,50.866760
2023-05-01T08:21:42.551Z,50.866764
2023-05-01T08:22:43.548Z,50.866753
2023-05-01T08:23:42.522Z,50.866714
2023-05-01T08:24:42.510Z,50.866730
2023-05-01T08:25:42.521Z,50.866726
2023-05-01T08:26:42.516Z,50.866734
2023-05-01T08:27:42.502Z,50.866737
2023-05-01T08:28:42.496Z,50.866749
2023-05-01T08:29:42.471Z,50.866726
2023-05-01T08:30:43.479Z,50.866714
2023-05-01T08:31:42.519Z,50.866730
2023-05-01T08:32:42.512Z,50.866703
2023-05-01T08:33:42.450Z,50.866825
2023-05-01T08:34:42.464Z,50.866817
2023-05-01T08:35:43.997Z,50.866844
2023-05-01T08:36:42.485Z,50.866837
2023-05-01T08:37:42.414Z,50.866863
2023-05-01T08:38:42.417Z,50.866787
2023-05-01T08:39:42.403Z,50.866707
2023-05-01T08:40:42.388Z,50.866756
2023-05-01T08:41:42.954Z,50.866745
2023-05-01T08:42:42.423Z,50.866829
2023-05-01T08:43:42.387Z,50.866810
2023-05-01T08:44:42.377Z,50.866825
2023-05-01T08:45:42.375Z,50.866787
2023-05-01T08:46:42.411Z,50.866791
2023-05-01T08:47:42.410Z,50.866756
2023-05-01T08:48:42.335Z,50.866745
2023-05-01T08:49:42.327Z,50.866734
2023-05-01T08:50:42.324Z,50.866833
2023-05-01T08:51:42.334Z,50.866840
2023-05-01T08:52:44.008Z,50.866734
2023-05-01T08:53:43.302Z,50.866688
2023-05-01T08:54:42.293Z,50.866741
2023-05-01T08:55:42.293Z,50.866810
2023-05-01T08:56:42.289Z,50.866814
2023-05-01T08:57:42.266Z,50.866722
2023-05-01T08:58:42.293Z,50.866699
2023-05-01T08:59:42.249Z,50.866745
2023-05-01T09:00:42.306Z,50.866901
2023-05-01T09:01:42.273Z,50.866844
2023-05-01T09:02:42.259Z,50.866772
2023-05-01T09:03:42.261Z,50.866787
2023-05-01T09:04:42.229Z,50.866829
2023-05-01T09:05:42.209Z,50.866867
2023-05-01T09:06:42.268Z,50.866814
2023-05-01T09:07:43.030Z,50.866879
2023-05-01T09:08:42.173Z,50.866901
2023-05-01T09:09:42.174Z,50.866989
2023-05-01T09:10:42.173Z,50.866951
2023-05-01T09:11:42.147Z,50.866947
2023-05-01T09:12:42.172Z,50.866970
2023-05-01T09:13:43.014Z,50.866962
2023-05-01T09:14:42.164Z,50.866947
2023-05-01T09:15:42.125Z,50.867020
2023-05-01T09:16:43.043Z,50.867039
2023-05-01T09:17:42.170Z,50.867012
2023-05-01T09:18:42.118Z,50.866993
2023-05-01T09:19:42.101Z,50.866959
2023-05-01T09:20:42.103Z,50.866806
2023-05-01T09:21:42.080Z,50.866764
2023-05-01T09:22:42.088Z,50.866684
2023-05-01T09:23:42.081Z,50.866760
2023-05-01T09:24:42.052Z,50.866791
2023-05-01T09:25:42.061Z,50.866859
2023-05-01T09:26:42.069Z,50.866776
2023-05-01T09:27:42.053Z,50.866829
2023-05-01T09:28:44.011Z,50.866905
2023-05-01T09:29:42.023Z,50.866982
2023-05-01T09:30:42.022Z,50.866962
2023-05-01T09:31:42.068Z,50.866863
2023-05-01T09:32:42.669Z,50.866844
2023-05-01T09:33:42.976Z,50.866829
2023-05-01T09:34:41.994Z,50.866760
2023-05-01T09:35:41.996Z,50.866764
2023-05-01T09:36:41.979Z,50.866764
2023-05-01T09:37:41.960Z,50.866795
2023-05-01T09:38:42.059Z,50.866783
2023-05-01T09:39:41.947Z,50.866760
2023-05-01T09:40:41.929Z,50.866711
2023-05-01T09:41:41.930Z,50.866711
2023-05-01T09:42:41.942Z,50.866680
2023-05-01T09:43:41.950Z,50.866718
2023-05-01T09:44:41.924Z,50.866734
2023-05-01T09:45:41.918Z,50.866734
2023-05-01T09:46:41.932Z,50.866760
2023-05-01T09:47:41.898Z,50.866745
2023-05-01T09:48:41.882Z,50.866806
2023-05-01T09:49:41.884Z,50.866810
2023-05-01T09:50:41.863Z,50.866776
2023-05-01T09:51:41.837Z,50.866734
2023-05-01T09:52:41.850Z,50.866730
2023-05-01T09:53:41.850Z,50.866695
2023-05-01T09:54:41.853Z,50.866714
2023-05-01T09:55:41.815Z,50.866737
2023-05-01T09:56:41.821Z,50.866707
2023-05-01T09:57:41.803Z,50.866741
2023-05-01T09:58:41.835Z,50.866756
2023-05-01T09:59:41.806Z,50.866665
2023-05-01T10:00:41.777Z,50.866600
2023-05-01T10:01:41.936Z,50.866615
2023-05-01T10:02:42.664Z,50.866657
2023-05-01T10:03:41.904Z,50.866810
2023-05-01T10:04:41.747Z,50.866772
2023-05-01T10:05:41.750Z,50.866692
2023-05-01T10:06:41.801Z,50.866653
2023-05-01T10:07:41.713Z,50.866764
2023-05-01T10:08:41.726Z,50.866745
2023-05-01T10:09:41.716Z,50.866650
2023-05-01T10:10:41.808Z,50.866692
2023-05-01T10:11:41.697Z,50.866756
2023-05-01T10:12:43.535Z,50.866734
2023-05-01T10:13:41.698Z,50.866673
2023-05-01T10:14:41.660Z,50.866608
2023-05-01T10:15:41.690Z,50.866566
2023-05-01T10:16:41.721Z,50.866684
2023-05-01T10:17:41.693Z,50.866734
2023-05-01T10:18:41.718Z,50.866669
2023-05-01T10:19:41.635Z,50.866741
2023-05-01T10:20:41.641Z,50.866779
2023-05-01T10:21:41.635Z,50.866772
2023-05-01T10:22:41.601Z,50.866722
2023-05-01T10:23:41.622Z,50.866673
2023-05-01T10:24:41.625Z,50.866684
2023-05-01T10:25:41.608Z,50.866669
2023-05-01T10:26:41.640Z,50.866638
2023-05-01T10:27:41.591Z,50.866642
2023-05-01T10:28:41.571Z,50.866718
2023-05-01T10:29:42.505Z,50.866673
2023-05-01T10:30:41.556Z,50.866745
2023-05-01T10:31:42.658Z,50.866684
2023-05-01T10:32:42.588Z,50.866776
2023-05-01T10:33:41.656Z,50.866730
2023-05-01T10:34:41.567Z,50.866661
2023-05-01T10:35:41.521Z,50.866764
2023-05-01T10:36:41.535Z,50.866711
2023-05-01T10:37:41.504Z,50.866753
2023-05-01T10:38:41.506Z,50.866768
2023-05-01T10:39:41.482Z,50.866692
2023-05-01T10:40:41.488Z,50.866817
2023-05-01T10:41:41.467Z,50.866852
2023-05-01T10:42:41.549Z,50.866604
2023-05-01T10:43:41.459Z,50.866741
2023-05-01T10:44:41.448Z,50.866814
2023-05-01T10:45:41.455Z,50.866863
2023-05-01T10:46:41.460Z,50.866798
2023-05-01T10:47:41.545Z,50.866676
2023-05-01T10:48:41.421Z,50.867016
2023-05-01T10:49:41.401Z,50.866776
2023-05-01T10:50:42.073Z,50.866734
2023-05-01T10:51:41.376Z,50.866817
2023-05-01T10:52:41.480Z,50.866756
2023-05-01T10:53:41.367Z,50.866650
2023-05-01T10:54:41.371Z,50.866863
2023-05-01T10:55:41.356Z,50.866840
2023-05-01T10:56:41.359Z,50.866756
2023-05-01T10:57:41.335Z,50.866669
2023-05-01T10:58:42.059Z,50.866722
2023-05-01T10:59:41.336Z,50.866726
2023-05-01T11:00:41.974Z,50.866928
2023-05-01T11:01:41.389Z,50.866993
2023-05-01T11:02:41.361Z,50.866962
2023-05-01T11:03:41.323Z,50.866898
2023-05-01T11:04:41.301Z,50.866928
2023-05-01T11:05:41.307Z,50.866833
2023-05-01T11:06:41.339Z,50.866913
2023-05-01T11:07:41.274Z,50.866955
2023-05-01T11:08:44.073Z,50.866894
2023-05-01T11:09:41.465Z,50.866806
2023-05-01T11:10:41.252Z,50.866879
2023-05-01T11:11:41.225Z,50.866879
2023-05-01T11:12:42.982Z,50.866886
2023-05-01T11:13:41.214Z,50.866734
2023-05-01T11:14:41.213Z,50.866657
2023-05-01T11:15:42.113Z,50.866745
2023-05-01T11:16:41.260Z,50.866730
2023-05-01T11:17:41.321Z,50.866749
2023-05-01T11:18:41.182Z,50.866676
2023-05-01T11:19:41.207Z,50.866497
2023-05-01T11:20:41.158Z,50.866833
2023-05-01T11:21:41.198Z,50.866684
2023-05-01T11:22:41.147Z,50.866844
2023-05-01T11:23:41.135Z,50.866875
2023-05-01T11:24:41.131Z,50.866959
2023-05-01T11:25:41.123Z,50.866886
2023-05-01T11:26:41.129Z,50.866859
2023-05-01T11:27:41.102Z,50.866817
2023-05-01T11:28:41.105Z,50.866623
2023-05-01T11:29:42.090Z,50.866680
2023-05-01T11:30:41.098Z,50.866528
2023-05-01T11:31:41.160Z,50.866543
2023-05-01T11:32:41.106Z,50.866623